Terminal Aerodrome Forecast
Issued by NWS

Home | Current Version | Previous Version | Text Only | Print | Product List | Glossary On
Versions: 1 2 3 4 5 6 7 8 9 10 11 12 13 14 15 16 17 18 19 20 21
000
FTUS46 KEKA 232000 AAA
TAFCEC
TAF AMD
KCEC 232009Z 2320/2418 18006KT 6SM -RA FEW005 OVC012
      TEMPO 2320/2323 2SM -RA BR BKN005 OVC012
     FM232300 25004KT P6SM -SHRA SCT010 BKN035
     FM240100 33004KT P6SM SCT040
     FM241000 36004KT 4SM BR BKN015
     FM241700 34008KT P6SM FEW025=

USA.gov is the U.S. government's official web portal to all federal, state and local government web resources and services.